Time;durP1;ratioP1;P1;durP2;ratioP2;P2;SDS_P1;SDS_P2;PMS_P1;PMS_P2;Temp;Humidity;BMP_temperature;BMP_pressure;BME280_temperature;BME280_humidity;BME280_pressure;Samples;Min_cycle;Max_cycle;Signal;HPM_P1;HPM_P2
2022/03/11 00:00:57;;;;;;;19.83;12.35;;;6.30;98.60;;;;;;4884602;29;20519;-47
2022/03/11 00:03:23;;;;;;;16.42;12.18;;;6.20;98.70;;;;;;4886771;29;20060;-47
2022/03/11 00:05:51;;;;;;;16.50;13.00;;;6.20;98.70;;;;;;4886088;29;20044;-45
2022/03/11 00:08:17;;;;;;;15.18;12.07;;;6.20;98.80;;;;;;4886988;29;20131;-49
2022/03/11 00:10:45;;;;;;;15.68;11.93;;;6.10;98.80;;;;;;4887611;29;20084;-47
2022/03/11 00:13:11;;;;;;;16.48;13.43;;;6.00;98.80;;;;;;4885891;29;20055;-47
2022/03/11 00:15:37;;;;;;;16.13;13.60;;;5.90;98.90;;;;;;4885450;29;20053;-47
2022/03/11 00:18:04;;;;;;;17.80;13.23;;;5.90;99.40;;;;;;4887747;29;20468;-49
2022/03/11 00:20:31;;;;;;;16.45;13.27;;;5.90;99.20;;;;;;4887233;29;20076;-47
2022/03/11 00:22:58;;;;;;;17.38;12.43;;;5.80;99.30;;;;;;4885630;29;20040;-48
2022/03/11 00:25:23;;;;;;;16.65;12.75;;;5.80;99.40;;;;;;4885874;29;20236;-45
2022/03/11 00:27:51;;;;;;;15.70;12.20;;;5.70;99.50;;;;;;4870988;29;20057;-46
2022/03/11 00:30:17;;;;;;;20.55;13.55;;;5.70;99.50;;;;;;4887556;29;20045;-45
2022/03/11 00:32:42;;;;;;;18.73;14.57;;;5.60;99.50;;;;;;4886457;29;20044;-49
2022/03/11 00:35:10;;;;;;;16.50;12.90;;;5.60;99.60;;;;;;4886022;29;20479;-47
2022/03/11 00:37:40;;;;;;;21.75;14.25;;;5.50;99.70;;;;;;4887549;29;20056;-44
2022/03/11 00:40:07;;;;;;;16.15;12.80;;;5.50;99.80;;;;;;4895721;29;20070;-47
2022/03/11 00:42:34;;;;;;;20.23;12.32;;;5.40;99.90;;;;;;4891742;29;20135;-47
2022/03/11 00:45:00;;;;;;;21.60;12.95;;;5.40;99.90;;;;;;4887991;29;20238;-48
2022/03/11 00:47:26;;;;;;;19.20;12.65;;;5.40;99.90;;;;;;4883667;29;20056;-48
2022/03/11 00:49:52;;;;;;;18.70;13.23;;;5.30;99.90;;;;;;4886031;29;20071;-46
2022/03/11 00:52:18;;;;;;;15.27;13.02;;;5.30;99.90;;;;;;4868575;29;20052;-45
2022/03/11 00:54:44;;;;;;;18.17;12.68;;;5.20;99.90;;;;;;4883947;29;20061;-45
2022/03/11 00:57:10;;;;;;;18.67;13.48;;;5.20;99.90;;;;;;4884182;29;20095;-45
2022/03/11 00:59:36;;;;;;;15.68;12.88;;;5.10;99.90;;;;;;4882511;29;20188;-46
2022/03/11 01:02:01;;;;;;;14.60;11.98;;;5.10;99.90;;;;;;4883424;29;20458;-47
2022/03/11 01:04:27;;;;;;;18.85;12.52;;;5.10;99.90;;;;;;4886342;29;20144;-45
2022/03/11 01:06:53;;;;;;;16.02;12.43;;;5.10;99.90;;;;;;4886724;29;20123;-45
2022/03/11 01:09:18;;;;;;;17.00;13.68;;;5.00;99.90;;;;;;4882988;29;20044;-47
2022/03/11 01:11:44;;;;;;;16.40;12.80;;;5.00;99.90;;;;;;4885215;29;20515;-47
2022/03/11 01:14:10;;;;;;;17.65;12.07;;;5.00;99.90;;;;;;4883660;29;20057;-48
2022/03/11 01:16:36;;;;;;;16.85;12.63;;;4.90;99.90;;;;;;4883087;29;20042;-46
2022/03/11 01:19:02;;;;;;;15.85;12.50;;;4.90;99.90;;;;;;4885032;29;20606;-44
2022/03/11 01:21:28;;;;;;;17.92;12.88;;;4.90;99.90;;;;;;4883376;29;20570;-45
2022/03/11 01:23:54;;;;;;;16.42;12.23;;;4.90;99.90;;;;;;4884770;29;20044;-46
2022/03/11 01:26:20;;;;;;;16.33;12.50;;;4.90;99.90;;;;;;4884791;29;20571;-47
2022/03/11 01:28:46;;;;;;;19.35;14.10;;;4.90;99.90;;;;;;4883313;29;20143;-47
2022/03/11 01:31:12;;;;;;;19.40;13.55;;;4.90;99.90;;;;;;4884533;29;20520;-46
2022/03/11 01:33:39;;;;;;;18.80;14.05;;;4.80;99.90;;;;;;4885983;29;20060;-48
2022/03/11 01:36:09;;;;;;;15.68;13.10;;;4.80;99.90;;;;;;4883508;29;20480;-47
2022/03/11 01:38:36;;;;;;;17.73;13.57;;;4.80;99.90;;;;;;4883405;29;20086;-46
2022/03/11 01:41:09;;;;;;;19.40;12.98;;;4.80;99.90;;;;;;4866149;29;20542;-48
2022/03/11 01:44:10;;;;;;;17.70;13.55;;;4.80;99.90;;;;;;4878112;29;20374;-45
2022/03/11 01:46:37;;;;;;;16.30;13.20;;;4.80;99.90;;;;;;4826257;29;20096;-46
2022/03/11 01:49:04;;;;;;;14.60;12.55;;;4.70;99.90;;;;;;4824339;29;20590;-45
2022/03/11 01:51:33;;;;;;;16.25;12.80;;;4.70;99.90;;;;;;4826012;29;20083;-46
2022/03/11 01:54:00;;;;;;;17.38;14.05;;;4.70;99.90;;;;;;4828703;29;20132;-45
2022/03/11 01:56:26;;;;;;;18.48;13.50;;;4.70;99.90;;;;;;4815776;29;20470;-46
2022/03/11 01:58:54;;;;;;;19.27;12.95;;;4.70;99.90;;;;;;4827046;29;20114;-45
2022/03/11 02:01:22;;;;;;;15.38;12.43;;;4.70;99.90;;;;;;4817764;29;20066;-46
2022/03/11 02:03:48;;;;;;;16.58;12.07;;;4.70;99.90;;;;;;4825976;29;20531;-46
2022/03/11 02:06:15;;;;;;;16.92;12.15;;;4.70;99.90;;;;;;4823564;29;20057;-48
2022/03/11 02:08:42;;;;;;;15.55;12.63;;;4.60;99.90;;;;;;4808052;29;20062;-45
2022/03/11 02:11:08;;;;;;;19.05;12.63;;;4.60;99.90;;;;;;4827090;29;20050;-45
2022/03/11 02:13:46;;;;;;;17.25;13.15;;;4.60;99.90;;;;;;4825072;29;20094;-46
2022/03/11 02:16:14;;;;;;;16.05;12.60;;;4.60;99.90;;;;;;4805099;29;20380;-47
2022/03/11 02:18:41;;;;;;;17.65;12.63;;;4.50;99.90;;;;;;4826617;29;20045;-45
2022/03/11 02:21:09;;;;;;;14.52;12.02;;;4.60;99.90;;;;;;4868366;29;20116;-45
2022/03/11 02:23:48;;;;;;;19.00;12.05;;;4.50;99.90;;;;;;4868509;29;20981;-46
2022/03/11 02:26:16;;;;;;;17.98;12.55;;;4.50;99.90;;;;;;4884700;29;20055;-45
2022/03/11 02:28:43;;;;;;;17.58;12.35;;;4.50;99.90;;;;;;4885480;29;20053;-46
2022/03/11 02:31:09;;;;;;;15.82;12.25;;;4.50;99.90;;;;;;4885103;29;20404;-45
2022/03/11 02:33:35;;;;;;;16.55;11.80;;;4.50;99.90;;;;;;4886080;29;20123;-47
2022/03/11 02:36:01;;;;;;;17.73;11.68;;;4.40;99.90;;;;;;4884845;29;20052;-45
2022/03/11 02:38:27;;;;;;;14.18;11.35;;;4.40;99.90;;;;;;4885422;29;20048;-45
2022/03/11 02:40:53;;;;;;;15.05;11.38;;;4.40;99.90;;;;;;4885257;29;20056;-47
2022/03/11 02:43:19;;;;;;;20.88;12.52;;;4.40;99.90;;;;;;4896211;29;20052;-48
2022/03/11 02:45:45;;;;;;;13.70;10.93;;;4.30;99.90;;;;;;4884597;29;20052;-48
2022/03/11 02:48:11;;;;;;;15.48;12.07;;;4.30;99.90;;;;;;4885421;29;20056;-46
2022/03/11 02:50:37;;;;;;;15.32;11.27;;;4.30;99.90;;;;;;4878818;29;20068;-46
2022/03/11 02:53:02;;;;;;;15.60;12.25;;;4.20;99.90;;;;;;4885523;29;20049;-46
2022/03/11 02:55:28;;;;;;;18.85;12.05;;;4.30;99.90;;;;;;4884293;29;20056;-47
2022/03/11 02:57:54;;;;;;;16.08;11.50;;;4.20;99.90;;;;;;4868974;29;20155;-44
2022/03/11 03:00:20;;;;;;;16.95;11.68;;;4.20;99.90;;;;;;4875680;29;20817;-45
2022/03/11 03:02:45;;;;;;;16.45;12.15;;;4.20;99.90;;;;;;4886371;29;20045;-45
2022/03/11 03:05:13;;;;;;;15.00;11.18;;;4.20;99.90;;;;;;4879747;29;20879;-46
2022/03/11 03:07:39;;;;;;;18.90;12.02;;;4.20;99.90;;;;;;4876681;29;20481;-46
2022/03/11 03:10:06;;;;;;;18.65;11.45;;;4.10;99.90;;;;;;4861355;29;20540;-49
2022/03/11 03:12:32;;;;;;;17.77;11.07;;;4.10;99.90;;;;;;4883052;29;20083;-46
2022/03/11 03:14:58;;;;;;;19.75;12.38;;;4.10;99.90;;;;;;4884693;29;20567;-49
2022/03/11 03:17:24;;;;;;;14.88;11.32;;;4.10;99.90;;;;;;4884194;29;20508;-46
2022/03/11 03:19:50;;;;;;;15.90;11.93;;;4.10;99.90;;;;;;4869698;29;20091;-45
2022/03/11 03:22:16;;;;;;;19.38;12.23;;;4.00;99.90;;;;;;4877950;29;20056;-46
2022/03/11 03:24:42;;;;;;;15.88;11.05;;;4.10;99.90;;;;;;4885131;29;20049;-45
2022/03/11 03:27:09;;;;;;;18.45;12.95;;;4.10;99.90;;;;;;4884095;29;20056;-45
2022/03/11 03:29:35;;;;;;;16.75;11.65;;;4.00;99.90;;;;;;4885022;29;20051;-47
2022/03/11 03:32:01;;;;;;;16.40;11.20;;;4.00;99.90;;;;;;4884805;29;20420;-45
2022/03/11 03:34:31;;;;;;;16.00;11.85;;;4.00;99.90;;;;;;4891837;29;20045;-45
2022/03/11 03:36:58;;;;;;;17.42;12.77;;;3.90;99.90;;;;;;4878474;29;20139;-45
2022/03/11 03:39:24;;;;;;;16.63;12.05;;;3.90;99.90;;;;;;4886243;29;20057;-46
2022/03/11 03:41:56;;;;;;;15.85;12.45;;;3.90;99.90;;;;;;4885576;29;20460;-45
2022/03/11 03:44:22;;;;;;;22.67;13.02;;;3.90;99.90;;;;;;4885214;29;20160;-44
2022/03/11 03:46:49;;;;;;;16.65;11.80;;;3.80;99.90;;;;;;4884847;29;20511;-50
2022/03/11 03:49:15;;;;;;;17.50;12.02;;;3.80;99.90;;;;;;4884573;29;20119;-45
2022/03/11 03:51:41;;;;;;;18.30;12.45;;;3.80;99.90;;;;;;4885382;29;20167;-44
2022/03/11 03:54:10;;;;;;;18.05;13.10;;;3.80;99.90;;;;;;4885167;29;20051;-47
2022/03/11 03:56:40;;;;;;;19.80;12.98;;;3.70;99.90;;;;;;4884459;29;20061;-46
2022/03/11 03:59:10;;;;;;;16.08;12.70;;;3.70;99.90;;;;;;4884722;29;20171;-46
2022/03/11 04:01:38;;;;;;;17.75;12.73;;;3.70;99.90;;;;;;4884803;29;20638;-44
2022/03/11 04:04:04;;;;;;;18.85;13.30;;;3.70;99.90;;;;;;4883093;29;20427;-49
2022/03/11 04:06:31;;;;;;;17.52;13.52;;;3.70;99.90;;;;;;4867493;29;20389;-47
2022/03/11 04:08:58;;;;;;;17.92;12.88;;;3.70;99.90;;;;;;4884835;29;20107;-50
2022/03/11 04:11:25;;;;;;;18.75;13.18;;;3.60;99.90;;;;;;4883822;29;20071;-48
2022/03/11 04:13:51;;;;;;;17.85;13.60;;;3.60;99.90;;;;;;4885702;29;20056;-48
2022/03/11 04:16:18;;;;;;;22.38;13.60;;;3.60;99.90;;;;;;4885503;29;20136;-47
2022/03/11 04:18:45;;;;;;;19.88;13.48;;;3.60;99.90;;;;;;4888522;29;20044;-49
2022/03/11 04:21:15;;;;;;;21.77;13.85;;;3.60;99.90;;;;;;4885126;29;20045;-50
2022/03/11 04:23:42;;;;;;;21.02;13.52;;;3.60;99.90;;;;;;4885261;29;20298;-48
2022/03/11 04:26:08;;;;;;;23.27;14.57;;;3.60;99.90;;;;;;4884623;29;20439;-45
2022/03/11 04:28:34;;;;;;;19.13;13.80;;;3.60;99.90;;;;;;4885129;29;20199;-44
2022/03/11 04:31:00;;;;;;;19.02;13.70;;;3.60;99.90;;;;;;4887510;29;20064;-45
2022/03/11 04:33:26;;;;;;;19.92;14.48;;;3.60;99.90;;;;;;4891553;29;20459;-45
2022/03/11 04:35:52;;;;;;;20.70;15.18;;;3.50;99.90;;;;;;4889683;29;20085;-45
2022/03/11 04:38:18;;;;;;;19.15;14.43;;;3.50;99.90;;;;;;4888134;29;20049;-45
2022/03/11 04:40:44;;;;;;;19.92;13.80;;;3.50;99.90;;;;;;4895355;29;20535;-45
2022/03/11 04:43:09;;;;;;;18.67;14.27;;;3.50;99.90;;;;;;4870381;29;20052;-44
2022/03/11 04:45:35;;;;;;;19.25;14.63;;;3.50;99.90;;;;;;4870256;29;20506;-45
2022/03/11 04:48:01;;;;;;;23.65;14.82;;;3.50;99.90;;;;;;4883920;29;20105;-45
2022/03/11 04:50:27;;;;;;;20.05;14.38;;;3.40;99.90;;;;;;4885080;29;20711;-44
2022/03/11 04:52:53;;;;;;;18.60;14.20;;;3.40;99.90;;;;;;4887221;29;20048;-45
2022/03/11 04:55:18;;;;;;;21.30;15.85;;;3.40;99.90;;;;;;4886703;29;20065;-45
2022/03/11 04:57:44;;;;;;;19.67;13.82;;;3.40;99.90;;;;;;4886837;29;20079;-44
2022/03/11 05:00:11;;;;;;;20.38;15.18;;;3.40;99.90;;;;;;4887742;29;20469;-44
2022/03/11 05:02:38;;;;;;;23.00;16.27;;;3.40;99.90;;;;;;4887123;29;20056;-46
2022/03/11 05:05:05;;;;;;;21.48;15.73;;;3.40;99.90;;;;;;4886379;29;20056;-46
2022/03/11 05:07:31;;;;;;;20.10;14.88;;;3.40;99.90;;;;;;4887074;29;20045;-45
2022/03/11 05:09:57;;;;;;;19.80;15.00;;;3.30;99.90;;;;;;4887886;29;20055;-48
2022/03/11 05:12:23;;;;;;;21.40;16.98;;;3.40;99.90;;;;;;4886951;29;20075;-45
2022/03/11 05:14:52;;;;;;;21.58;15.23;;;3.30;99.90;;;;;;4885543;29;20528;-45
2022/03/11 05:17:18;;;;;;;24.02;15.73;;;3.30;99.90;;;;;;4886835;29;20075;-48
2022/03/11 05:19:46;;;;;;;20.63;14.90;;;3.30;99.90;;;;;;4863513;29;20146;-45
2022/03/11 05:22:12;;;;;;;21.42;15.48;;;3.30;99.90;;;;;;4871280;29;20432;-47
2022/03/11 05:24:38;;;;;;;20.25;14.93;;;3.30;99.90;;;;;;4886091;29;20047;-46
2022/03/11 05:27:05;;;;;;;23.67;16.40;;;3.30;99.90;;;;;;4887697;29;20535;-49
2022/03/11 05:29:32;;;;;;;22.10;15.80;;;3.30;99.90;;;;;;4890100;29;20048;-46
2022/03/11 05:31:59;;;;;;;22.40;15.52;;;3.30;99.90;;;;;;4887881;29;20160;-47
2022/03/11 05:34:24;;;;;;;23.20;16.42;;;3.30;99.90;;;;;;4887015;29;20052;-49
2022/03/11 05:36:51;;;;;;;27.02;17.23;;;3.20;99.90;;;;;;4884558;29;20527;-45
2022/03/11 05:39:17;;;;;;;22.85;16.48;;;3.20;99.90;;;;;;4886703;29;20432;-45
2022/03/11 05:41:42;;;;;;;23.50;16.73;;;3.10;99.90;;;;;;4870024;29;20059;-45
2022/03/11 05:44:08;;;;;;;22.23;16.63;;;3.10;99.90;;;;;;4886531;29;20056;-44
2022/03/11 05:46:34;;;;;;;25.85;16.48;;;3.10;99.90;;;;;;4885388;29;20040;-45
2022/03/11 05:49:00;;;;;;;21.95;16.98;;;3.10;99.90;;;;;;4880636;29;20052;-46
2022/03/11 05:51:25;;;;;;;23.98;16.10;;;3.10;99.90;;;;;;4885987;29;20140;-45
2022/03/11 05:53:51;;;;;;;22.00;16.05;;;3.00;99.90;;;;;;4886129;29;20044;-45
2022/03/11 05:56:17;;;;;;;27.95;17.85;;;3.00;99.90;;;;;;4885379;29;20530;-47
2022/03/11 05:58:43;;;;;;;23.92;17.50;;;3.00;99.90;;;;;;4884970;29;20059;-45
2022/03/11 06:01:09;;;;;;;20.85;15.50;;;3.00;99.90;;;;;;4869007;29;20542;-45
2022/03/11 06:03:34;;;;;;;27.13;17.00;;;3.00;99.90;;;;;;4886010;29;20041;-44
2022/03/11 06:06:00;;;;;;;23.55;17.35;;;3.00;99.90;;;;;;4868431;29;20100;-45
2022/03/11 06:08:26;;;;;;;24.90;17.80;;;3.00;99.90;;;;;;4888687;29;20056;-45
2022/03/11 06:10:51;;;;;;;24.85;18.20;;;3.00;99.90;;;;;;4869415;29;20056;-46
2022/03/11 06:13:17;;;;;;;26.38;18.67;;;3.00;99.90;;;;;;4885775;29;20059;-45
2022/03/11 06:15:43;;;;;;;26.63;17.27;;;3.00;99.90;;;;;;4884762;29;20119;-46
2022/03/11 06:18:10;;;;;;;26.60;18.05;;;2.90;99.90;;;;;;4886413;29;20096;-45
2022/03/11 06:20:36;;;;;;;25.17;17.75;;;3.00;99.90;;;;;;4885981;29;20079;-44
2022/03/11 06:23:02;;;;;;;26.83;19.33;;;3.00;99.90;;;;;;4885909;29;20084;-45
2022/03/11 06:25:28;;;;;;;26.55;19.42;;;3.00;99.90;;;;;;4885285;29;20165;-46
2022/03/11 06:27:55;;;;;;;26.17;18.48;;;3.40;99.90;;;;;;4885990;29;20472;-46
2022/03/11 06:30:26;;;;;;;27.77;18.77;;;3.90;99.90;;;;;;4886339;29;20161;-47
2022/03/11 06:32:57;;;;;;;24.50;17.90;;;4.60;99.90;;;;;;4870327;29;20184;-44
2022/03/11 06:35:23;;;;;;;30.08;20.15;;;5.10;99.90;;;;;;4864034;29;20132;-48
2022/03/11 06:37:53;;;;;;;24.98;17.85;;;5.70;99.90;;;;;;4894792;29;20060;-44
2022/03/11 06:40:20;;;;;;;26.80;18.77;;;6.10;99.90;;;;;;4885269;29;20071;-46
2022/03/11 06:42:47;;;;;;;24.45;18.70;;;6.50;99.90;;;;;;4893505;29;20052;-47
2022/03/11 06:45:15;;;;;;;26.08;19.38;;;6.90;99.90;;;;;;4885421;29;20068;-47
2022/03/11 06:47:43;;;;;;;28.85;17.58;;;7.10;99.90;;;;;;4884487;29;20686;-43
2022/03/11 06:50:09;;;;;;;28.93;20.23;;;7.10;99.90;;;;;;4883783;29;20059;-48
2022/03/11 06:52:35;;;;;;;23.33;18.20;;;6.80;99.90;;;;;;4884592;29;20100;-44
2022/03/11 06:55:02;;;;;;;25.08;19.23;;;6.60;99.90;;;;;;4884429;29;20659;-46
2022/03/11 06:57:28;;;;;;;24.77;18.60;;;6.40;99.90;;;;;;4880812;29;20056;-46
2022/03/11 06:59:54;;;;;;;27.58;19.02;;;6.20;99.90;;;;;;4868187;29;20131;-45
2022/03/11 07:02:20;;;;;;;25.00;17.75;;;6.10;99.90;;;;;;4885084;29;20049;-45
2022/03/11 07:04:46;;;;;;;25.88;18.40;;;6.10;99.90;;;;;;4884558;29;20053;-46
2022/03/11 07:07:12;;;;;;;25.88;18.27;;;6.10;99.90;;;;;;4883139;29;20445;-44
2022/03/11 07:09:38;;;;;;;24.58;19.20;;;6.00;99.90;;;;;;4884131;29;20694;-47
2022/03/11 07:12:04;;;;;;;22.55;18.65;;;6.10;99.90;;;;;;4868458;29;20071;-46
2022/03/11 07:14:33;;;;;;;25.38;17.70;;;6.20;99.90;;;;;;4885340;29;20048;-45
2022/03/11 07:16:59;;;;;;;24.73;19.08;;;6.10;99.90;;;;;;4884469;29;20048;-47
2022/03/11 07:19:29;;;;;;;24.30;18.80;;;6.10;99.90;;;;;;4883903;29;20140;-46
2022/03/11 07:21:59;;;;;;;26.80;19.02;;;6.10;99.90;;;;;;4884956;29;20056;-45
2022/03/11 07:24:25;;;;;;;23.50;19.02;;;6.20;99.90;;;;;;4867573;29;20092;-44
2022/03/11 07:26:51;;;;;;;24.33;19.30;;;6.20;99.90;;;;;;4884060;29;20493;-45
2022/03/11 07:29:17;;;;;;;23.08;18.25;;;6.30;99.90;;;;;;4882453;29;20044;-44
2022/03/11 07:31:43;;;;;;;28.13;19.77;;;6.40;99.90;;;;;;4851018;29;20092;-44
2022/03/11 07:34:09;;;;;;;26.20;18.77;;;6.40;99.90;;;;;;4883196;29;20131;-45
2022/03/11 07:36:38;;;;;;;27.17;19.40;;;6.50;99.90;;;;;;4868289;29;20052;-47
2022/03/11 07:39:06;;;;;;;24.52;18.25;;;6.50;99.90;;;;;;4884134;29;20164;-45
2022/03/11 07:41:32;;;;;;;24.05;18.85;;;6.60;99.90;;;;;;4884646;29;20407;-46
2022/03/11 07:43:59;;;;;;;22.60;18.08;;;6.70;99.90;;;;;;4884652;29;20136;-48
2022/03/11 07:46:27;;;;;;;22.08;17.80;;;6.80;99.90;;;;;;4868732;29;20131;-48
2022/03/11 07:48:53;;;;;;;24.20;18.42;;;6.90;99.90;;;;;;4887005;29;20531;-48
2022/03/11 07:51:19;;;;;;;22.55;18.20;;;6.90;99.90;;;;;;4883320;29;20080;-48
2022/03/11 07:53:48;;;;;;;23.65;18.33;;;6.90;99.90;;;;;;4884995;29;20185;-45
2022/03/11 07:56:15;;;;;;;23.50;18.65;;;6.90;99.90;;;;;;4884647;29;20060;-46
2022/03/11 07:58:41;;;;;;;22.02;18.38;;;7.00;99.90;;;;;;4882862;29;20060;-47
2022/03/11 08:01:11;;;;;;;29.30;19.20;;;7.00;99.90;;;;;;4883384;29;20488;-47
2022/03/11 08:03:38;;;;;;;25.38;19.38;;;7.10;99.90;;;;;;4884391;29;20174;-47
2022/03/11 08:06:05;;;;;;;25.65;18.05;;;7.00;99.90;;;;;;4888217;29;20060;-46
2022/03/11 08:08:31;;;;;;;23.95;18.25;;;7.00;99.90;;;;;;4892550;29;20145;-44
2022/03/11 08:10:57;;;;;;;25.83;19.58;;;7.20;99.90;;;;;;4888629;29;20585;-45
2022/03/11 08:13:23;;;;;;;28.17;18.70;;;7.20;99.90;;;;;;4887953;29;20051;-45
2022/03/11 08:15:49;;;;;;;26.45;18.85;;;7.20;99.90;;;;;;4871228;29;20057;-45
2022/03/11 08:18:16;;;;;;;24.75;17.10;;;7.20;99.90;;;;;;4871492;29;20448;-47
2022/03/11 08:20:42;;;;;;;24.98;18.83;;;7.30;99.90;;;;;;4887878;29;20540;-46
2022/03/11 08:23:08;;;;;;;25.52;19.45;;;7.20;99.90;;;;;;4888270;29;20048;-46
2022/03/11 08:25:35;;;;;;;24.83;19.40;;;7.40;99.90;;;;;;4884628;29;20504;-44
2022/03/11 08:28:02;;;;;;;25.35;18.88;;;7.30;99.90;;;;;;4887788;29;20053;-47
2022/03/11 08:30:29;;;;;;;25.27;19.33;;;7.40;99.90;;;;;;4881007;29;20049;-49
2022/03/11 08:32:55;;;;;;;22.60;17.95;;;7.40;99.90;;;;;;4869708;29;20479;-48
2022/03/11 08:35:21;;;;;;;29.42;19.60;;;7.50;99.90;;;;;;4886568;29;20053;-47
2022/03/11 08:37:47;;;;;;;23.45;19.33;;;7.50;99.90;;;;;;4888763;29;20076;-47
2022/03/11 08:40:14;;;;;;;24.08;19.05;;;7.60;99.90;;;;;;4891017;29;20138;-46
2022/03/11 08:42:43;;;;;;;24.85;18.92;;;7.60;99.90;;;;;;4878716;29;20167;-47
2022/03/11 08:45:10;;;;;;;27.13;19.27;;;7.60;99.90;;;;;;4870342;29;20059;-48
2022/03/11 08:47:36;;;;;;;24.20;18.92;;;7.60;99.90;;;;;;4886395;29;20148;-46
2022/03/11 08:50:03;;;;;;;26.35;18.85;;;7.60;99.90;;;;;;4887038;29;20044;-46
2022/03/11 08:52:30;;;;;;;25.33;19.38;;;7.70;99.90;;;;;;4886257;29;20052;-46
2022/03/11 08:54:56;;;;;;;25.80;18.90;;;7.70;99.90;;;;;;4868990;29;20064;-45
2022/03/11 08:57:22;;;;;;;25.52;19.55;;;7.80;99.90;;;;;;4887071;29;20453;-46
2022/03/11 08:59:48;;;;;;;24.30;18.63;;;7.80;99.90;;;;;;4887219;29;20052;-49
2022/03/11 09:02:15;;;;;;;22.92;19.17;;;8.00;99.90;;;;;;4889383;29;20074;-49
2022/03/11 09:04:42;;;;;;;22.75;17.05;;;8.10;99.90;;;;;;4890084;29;20052;-47
2022/03/11 09:07:08;;;;;;;24.92;18.73;;;8.20;99.90;;;;;;4891706;29;20131;-49
2022/03/11 09:09:36;;;;;;;22.02;18.52;;;8.20;99.90;;;;;;4883941;29;20089;-48
2022/03/11 09:12:03;;;;;;;27.58;19.27;;;8.20;99.90;;;;;;4890669;29;20059;-48
2022/03/11 09:14:30;;;;;;;25.20;20.23;;;8.20;99.90;;;;;;4865741;29;21138;-49
2022/03/11 09:16:56;;;;;;;22.98;18.98;;;8.20;99.90;;;;;;4869695;29;20510;-49
2022/03/11 09:19:21;;;;;;;23.48;19.45;;;8.20;99.90;;;;;;4886374;29;20506;-47
2022/03/11 09:21:48;;;;;;;24.25;19.60;;;8.30;99.90;;;;;;4887404;29;20044;-46
2022/03/11 09:24:15;;;;;;;26.17;20.60;;;8.30;99.90;;;;;;4884318;29;20064;-48
2022/03/11 09:26:41;;;;;;;41.85;20.30;;;8.40;99.90;;;;;;4883464;29;20120;-47
2022/03/11 09:29:09;;;;;;;25.80;19.48;;;8.50;99.90;;;;;;4884748;29;20101;-47
2022/03/11 09:31:35;;;;;;;22.67;19.42;;;8.50;99.90;;;;;;4888874;29;20051;-50
2022/03/11 09:34:01;;;;;;;25.60;18.88;;;8.60;99.90;;;;;;4886597;29;20049;-47
2022/03/11 09:36:27;;;;;;;23.42;19.42;;;8.70;99.90;;;;;;4884456;29;20052;-47
2022/03/11 09:38:52;;;;;;;24.75;20.02;;;8.70;99.90;;;;;;4885387;29;20049;-47
2022/03/11 09:41:20;;;;;;;23.45;17.98;;;8.80;99.90;;;;;;4897195;29;20265;-46
2022/03/11 09:43:46;;;;;;;23.17;20.13;;;8.90;99.90;;;;;;4902710;29;20051;-47
2022/03/11 09:46:14;;;;;;;25.38;19.65;;;8.90;99.90;;;;;;4885783;29;20465;-48
2022/03/11 09:48:41;;;;;;;25.63;20.10;;;9.00;99.90;;;;;;4886797;29;20591;-46
2022/03/11 09:51:10;;;;;;;31.10;19.30;;;9.00;99.50;;;;;;4887239;29;20519;-47
2022/03/11 09:53:36;;;;;;;27.08;20.08;;;9.00;98.50;;;;;;4865143;29;20048;-48
2022/03/11 09:56:03;;;;;;;25.75;19.63;;;9.10;99.90;;;;;;4884286;29;20056;-47
2022/03/11 09:58:29;;;;;;;23.83;19.02;;;9.10;98.90;;;;;;4886315;29;20052;-48
2022/03/11 10:00:55;;;;;;;22.40;18.48;;;9.20;99.60;;;;;;4885347;29;20059;-49
2022/03/11 10:03:21;;;;;;;24.80;19.35;;;9.20;99.30;;;;;;4866831;29;20120;-49
2022/03/11 10:05:51;;;;;;;22.67;18.42;;;9.20;99.60;;;;;;4885129;29;20052;-47
2022/03/11 10:08:30;;;;;;;26.67;19.63;;;9.30;98.90;;;;;;4884889;29;20428;-48
2022/03/11 10:11:18;;;;;;;22.75;19.20;;;9.40;98.40;;;;;;4886610;29;20060;-50
2022/03/11 10:13:44;;;;;;;23.55;18.00;;;9.50;99.80;;;;;;4880289;29;20115;-47
2022/03/11 10:16:19;;;;;;;27.35;19.42;;;9.70;99.90;;;;;;4885783;29;20057;-48
2022/03/11 10:18:55;;;;;;;24.60;18.88;;;9.90;99.50;;;;;;4885428;29;20059;-47
2022/03/11 10:21:29;;;;;;;24.77;19.08;;;10.00;99.30;;;;;;4888170;29;20491;-48
2022/03/11 10:23:55;;;;;;;22.83;18.73;;;9.90;97.90;;;;;;4888569;29;20071;-48
2022/03/11 10:26:34;;;;;;;23.83;19.15;;;9.90;97.60;;;;;;4877868;29;20448;-48
2022/03/11 10:29:05;;;;;;;25.48;19.90;;;9.80;97.80;;;;;;4882866;29;20824;-48
2022/03/11 10:31:36;;;;;;;25.33;20.17;;;9.80;98.00;;;;;;4882215;29;20504;-47
2022/03/11 10:34:14;;;;;;;24.25;19.55;;;9.80;97.70;;;;;;4882488;29;20056;-52
2022/03/11 10:37:10;;;;;;;24.05;18.70;;;10.00;98.80;;;;;;4884860;29;20056;-49
2022/03/11 10:39:46;;;;;;;25.02;19.77;;;10.00;98.30;;;;;;4864905;29;20646;-48
2022/03/11 10:42:12;;;;;;;27.02;19.75;;;10.10;97.50;;;;;;4878670;29;20579;-50
2022/03/11 10:44:39;;;;;;;37.55;20.40;;;10.10;97.30;;;;;;4883169;29;20148;-51
2022/03/11 10:47:29;;;;;;;24.60;20.05;;;10.10;97.00;;;;;;4882767;29;20220;-51
2022/03/11 10:49:58;;;;;;;24.30;19.27;;;10.20;97.40;;;;;;4878734;29;20507;-48
2022/03/11 10:52:47;;;;;;;25.17;20.27;;;10.20;97.40;;;;;;4888234;29;20060;-47
2022/03/11 10:55:30;;;;;;;23.25;19.30;;;10.20;98.30;;;;;;4882875;29;20052;-49
2022/03/11 10:57:59;;;;;;;25.70;19.77;;;10.30;97.00;;;;;;4884081;29;20157;-49
2022/03/11 11:00:34;;;;;;;29.95;21.00;;;10.30;97.30;;;;;;4883634;29;20159;-46
2022/03/11 11:03:13;;;;;;;25.20;19.42;;;10.50;98.10;;;;;;4865738;29;20582;-47
2022/03/11 11:05:39;;;;;;;24.30;20.73;;;10.60;98.00;;;;;;4878781;29;20527;-47
2022/03/11 11:08:08;;;;;;;26.58;20.60;;;10.60;98.40;;;;;;4862323;29;20098;-52
2022/03/11 11:10:37;;;;;;;23.95;20.33;;;10.80;97.50;;;;;;4860545;29;20106;-51
2022/03/11 11:13:03;;;;;;;22.13;18.85;;;10.80;97.00;;;;;;4879866;29;20056;-47
2022/03/11 11:15:29;;;;;;;25.80;21.00;;;10.80;96.30;;;;;;4885691;29;20115;-50
2022/03/11 11:17:55;;;;;;;25.52;20.63;;;10.80;97.50;;;;;;4886146;29;20055;-49
2022/03/11 11:20:30;;;;;;;28.10;21.75;;;10.90;97.20;;;;;;4886341;29;20408;-47
2022/03/11 11:22:57;;;;;;;26.40;19.42;;;11.00;97.60;;;;;;4868015;29;20141;-49
2022/03/11 11:25:23;;;;;;;26.20;18.60;;;11.00;95.90;;;;;;4881737;29;20899;-49
2022/03/11 11:27:51;;;;;;;23.65;18.67;;;11.10;95.70;;;;;;4885838;29;20063;-49
2022/03/11 11:30:25;;;;;;;23.73;20.20;;;11.20;95.50;;;;;;4886004;29;20060;-48
2022/03/11 11:32:55;;;;;;;;;;;11.20;95.50;;;;;;4885707;29;20056;-48
2022/03/11 11:35:33;;;;;;;26.70;19.63;;;11.20;95.90;;;;;;4867507;29;19927;-48
2022/03/11 11:38:01;;;;;;;24.67;19.70;;;11.20;94.80;;;;;;4888515;29;20052;-51
2022/03/11 11:40:26;;;;;;;25.58;19.83;;;11.20;94.10;;;;;;4894748;29;20060;-49
2022/03/11 11:43:26;;;;;;;23.67;19.00;;;11.10;94.00;;;;;;4888612;29;20044;-50
2022/03/11 11:46:12;;;;;;;21.70;18.70;;;11.30;96.70;;;;;;4888923;29;20060;-47
2022/03/11 11:48:42;;;;;;;23.58;18.98;;;11.40;95.90;;;;;;4880508;29;20056;-46
2022/03/11 11:51:11;;;;;;;25.23;20.40;;;11.40;94.60;;;;;;4884901;29;20063;-49
2022/03/11 11:53:41;;;;;;;21.33;18.40;;;11.40;94.70;;;;;;4889506;29;20132;-47
2022/03/11 11:56:33;;;;;;;27.55;19.42;;;11.50;94.30;;;;;;4888605;29;20503;-50
2022/03/11 11:59:10;;;;;;;24.60;20.75;;;11.50;93.70;;;;;;4883322;29;20091;-47
2022/03/11 12:01:50;;;;;;;28.52;20.05;;;11.50;95.90;;;;;;4884913;29;20412;-48
2022/03/11 12:04:38;;;;;;;27.05;19.73;;;11.70;96.20;;;;;;4870646;29;20582;-49
2022/03/11 12:07:15;;;;;;;22.88;19.75;;;11.70;95.30;;;;;;4881501;29;20560;-50
2022/03/11 12:09:58;;;;;;;24.35;21.30;;;11.80;95.40;;;;;;4886179;29;20045;-47
2022/03/11 12:12:32;;;;;;;26.42;20.25;;;11.80;95.30;;;;;;4888269;29;20056;-50
2022/03/11 12:15:04;;;;;;;24.38;19.13;;;11.80;95.20;;;;;;4889454;29;20053;-48
2022/03/11 12:17:40;;;;;;;25.17;20.10;;;11.70;94.10;;;;;;4888859;29;20060;-50
2022/03/11 12:20:24;;;;;;;26.20;20.58;;;11.70;93.70;;;;;;4884516;29;20183;-48
2022/03/11 12:23:15;;;;;;;24.75;20.02;;;11.70;93.80;;;;;;4888423;29;20546;-49
2022/03/11 12:25:45;;;;;;;26.23;20.92;;;11.60;94.30;;;;;;4889853;29;20143;-48
2022/03/11 12:28:18;;;;;;;22.33;19.60;;;11.80;94.80;;;;;;4887669;29;20098;-50
2022/03/11 12:30:46;;;;;;;25.77;19.90;;;11.80;93.90;;;;;;4888866;29;20083;-47
2022/03/11 12:33:20;;;;;;;22.80;19.70;;;11.70;93.50;;;;;;4888539;29;20087;-46
2022/03/11 12:35:49;;;;;;;25.45;20.92;;;11.70;95.10;;;;;;4887680;29;20056;-49
2022/03/11 12:38:16;;;;;;;24.42;19.83;;;11.80;94.00;;;;;;4888023;29;20064;-48
2022/03/11 12:40:43;;;;;;;24.75;21.05;;;11.80;94.60;;;;;;4889321;29;20059;-52